createdAt,value
2019-02-07T00:00:40.428Z,306.16
2019-02-07T00:01:40.431Z,306.03
2019-02-07T00:02:40.460Z,305.69
2019-02-07T00:03:40.393Z,305.90
2019-02-07T00:04:40.392Z,306.06
2019-02-07T00:05:40.392Z,304.97
2019-02-07T00:06:40.364Z,305.92
2019-02-07T00:07:40.393Z,305.24
2019-02-07T00:08:40.373Z,305.84
2019-02-07T00:09:40.321Z,306.01
2019-02-07T00:10:40.318Z,305.73
2019-02-07T00:11:40.301Z,305.91
2019-02-07T00:12:40.292Z,305.62
2019-02-07T00:13:40.301Z,305.63
2019-02-07T00:14:40.279Z,305.91
2019-02-07T00:15:40.828Z,305.74
2019-02-07T00:16:40.288Z,305.55
2019-02-07T00:17:40.296Z,305.57
2019-02-07T00:18:40.252Z,306.19
2019-02-07T00:19:40.230Z,305.51
2019-02-07T00:20:40.212Z,306.19
2019-02-07T00:21:40.207Z,305.93
2019-02-07T00:22:40.226Z,305.70
2019-02-07T00:23:40.190Z,305.72
2019-02-07T00:24:42.817Z,305.67
2019-02-07T00:25:40.205Z,305.68
2019-02-07T00:26:40.182Z,305.60
2019-02-07T00:27:40.180Z,305.86
2019-02-07T00:28:40.118Z,305.22
2019-02-07T00:29:40.119Z,305.60
2019-02-07T00:30:48.215Z,305.19
2019-02-07T00:31:40.109Z,305.29
2019-02-07T00:32:40.143Z,305.14
2019-02-07T00:33:48.132Z,304.35
2019-02-07T00:34:47.911Z,304.98
2019-02-07T00:35:47.163Z,305.43
2019-02-07T00:36:48.419Z,304.99
2019-02-07T00:37:48.470Z,305.13
2019-02-07T00:38:48.955Z,305.14
2019-02-07T00:39:48.060Z,304.92
2019-02-07T00:40:40.052Z,305.46
2019-02-07T00:41:40.045Z,304.44
2019-02-07T00:42:40.007Z,305.26
2019-02-07T00:43:47.016Z,305.07
2019-02-07T00:44:50.246Z,304.69
2019-02-07T00:45:41.054Z,304.44
2019-02-07T00:46:47.995Z,305.10
2019-02-07T00:47:47.026Z,304.87
2019-02-07T00:48:46.976Z,304.44
2019-02-07T00:49:46.961Z,304.54
2019-02-07T00:50:39.886Z,304.50
2019-02-07T00:51:47.915Z,304.67
2019-02-07T00:52:47.946Z,304.74
2019-02-07T00:53:46.904Z,304.80
2019-02-07T00:54:47.697Z,304.25
2019-02-07T00:55:47.891Z,304.97
2019-02-07T00:56:47.719Z,304.73
2019-02-07T00:57:48.739Z,304.66
2019-02-07T00:58:39.842Z,304.82
2019-02-07T00:59:39.818Z,304.73
2019-02-07T01:00:39.776Z,304.92
2019-02-07T01:01:39.795Z,304.91
2019-02-07T01:02:39.776Z,304.55
2019-02-07T01:03:39.785Z,304.49
2019-02-07T01:04:39.788Z,304.79
2019-02-07T01:05:39.710Z,304.13
2019-02-07T01:06:47.659Z,304.91
2019-02-07T01:07:47.806Z,304.55
2019-02-07T01:08:46.933Z,305.29
2019-02-07T01:09:46.777Z,304.67
2019-02-07T01:10:49.681Z,304.52
2019-02-07T01:11:47.709Z,304.29
2019-02-07T01:12:48.423Z,304.52
2019-02-07T01:13:47.912Z,304.57
2019-02-07T01:14:47.456Z,304.00
2019-02-07T01:15:48.697Z,304.25
2019-02-07T01:16:46.753Z,303.63
2019-02-07T01:17:47.634Z,303.93
2019-02-07T01:18:47.214Z,304.51
2019-02-07T01:19:39.666Z,304.00
2019-02-07T01:20:39.586Z,304.06
2019-02-07T01:21:39.585Z,303.83
2019-02-07T01:22:39.538Z,303.78
2019-02-07T01:23:39.542Z,303.91
2019-02-07T01:24:39.552Z,304.35
2019-02-07T01:25:39.571Z,304.49
2019-02-07T01:26:39.510Z,304.42
2019-02-07T01:27:39.527Z,304.25
2019-02-07T01:28:39.551Z,304.43
2019-02-07T01:29:39.466Z,304.34
2019-02-07T01:30:39.477Z,303.90
2019-02-07T01:31:39.475Z,303.55
2019-02-07T01:32:39.443Z,303.92
2019-02-07T01:33:39.447Z,304.54
2019-02-07T01:34:39.400Z,304.13
2019-02-07T01:35:39.446Z,303.90
2019-02-07T01:36:39.447Z,304.04
2019-02-07T01:37:39.413Z,303.82
2019-02-07T01:38:39.466Z,303.99
2019-02-07T01:39:39.349Z,304.26
2019-02-07T01:40:39.348Z,304.69
2019-02-07T01:41:39.337Z,305.26
2019-02-07T01:42:39.340Z,304.40
2019-02-07T01:43:39.362Z,304.68
2019-02-07T01:44:39.340Z,304.41
2019-02-07T01:45:39.286Z,304.13
2019-02-07T01:46:39.310Z,304.21
2019-02-07T01:47:39.278Z,304.74
2019-02-07T01:48:39.301Z,304.20
2019-02-07T01:49:39.264Z,304.29
2019-02-07T01:50:40.020Z,303.98
2019-02-07T01:51:39.240Z,304.30
2019-02-07T01:52:40.049Z,304.77
2019-02-07T01:53:39.239Z,304.13
2019-02-07T01:54:39.235Z,304.54
2019-02-07T01:55:39.196Z,304.40
2019-02-07T01:56:39.181Z,304.57
2019-02-07T01:57:39.164Z,304.31
2019-02-07T01:58:39.558Z,304.62
2019-02-07T01:59:39.163Z,304.55
2019-02-07T02:00:39.163Z,304.77
2019-02-07T02:01:39.186Z,304.46
2019-02-07T02:02:39.139Z,305.03
2019-02-07T02:03:39.121Z,304.48
2019-02-07T02:04:39.126Z,304.55
2019-02-07T02:05:39.103Z,304.38
2019-02-07T02:06:39.108Z,304.22
2019-02-07T02:07:39.121Z,304.48
2019-02-07T02:08:39.089Z,303.93
2019-02-07T02:09:39.381Z,304.77
2019-02-07T02:10:39.055Z,304.57
2019-02-07T02:11:39.073Z,304.90
2019-02-07T02:12:39.071Z,305.38
2019-02-07T02:13:39.021Z,304.73
2019-02-07T02:14:39.044Z,305.05
2019-02-07T02:15:38.990Z,305.19
2019-02-07T02:16:38.984Z,305.33
2019-02-07T02:17:38.997Z,304.92
2019-02-07T02:18:38.961Z,305.13
2019-02-07T02:19:39.010Z,304.96
2019-02-07T02:20:38.910Z,304.36
2019-02-07T02:21:38.940Z,304.70
2019-02-07T02:22:38.919Z,304.86
2019-02-07T02:23:38.909Z,304.85
2019-02-07T02:24:38.932Z,305.70
2019-02-07T02:25:46.609Z,304.94
2019-02-07T02:26:46.918Z,305.20
2019-02-07T02:27:47.535Z,304.93
2019-02-07T02:28:38.858Z,304.61
2019-02-07T02:29:38.872Z,304.81
2019-02-07T02:30:38.837Z,304.46
2019-02-07T02:31:38.841Z,304.94
2019-02-07T02:32:38.796Z,304.88
2019-02-07T02:33:38.786Z,304.84
2019-02-07T02:34:38.811Z,305.16
2019-02-07T02:35:38.800Z,304.84
2019-02-07T02:36:38.802Z,305.38
2019-02-07T02:37:38.769Z,305.15
2019-02-07T02:38:38.776Z,305.08
2019-02-07T02:39:38.785Z,305.26
2019-02-07T02:40:38.749Z,305.60
2019-02-07T02:41:38.761Z,305.65
2019-02-07T02:42:38.708Z,305.76
2019-02-07T02:43:38.715Z,305.66
2019-02-07T02:44:38.733Z,305.62
2019-02-07T02:45:38.698Z,305.74
2019-02-07T02:46:38.677Z,305.25
2019-02-07T02:47:38.654Z,304.85
2019-02-07T02:48:38.657Z,305.13
2019-02-07T02:49:38.656Z,305.25
2019-02-07T02:50:38.611Z,304.86
2019-02-07T02:51:38.623Z,304.41
2019-02-07T02:52:40.359Z,305.09
2019-02-07T02:53:38.594Z,305.08
2019-02-07T02:54:38.597Z,304.85
2019-02-07T02:55:38.586Z,305.17
2019-02-07T02:56:38.544Z,305.70
2019-02-07T02:57:38.567Z,305.45
2019-02-07T02:58:46.563Z,305.07
2019-02-07T02:59:45.582Z,304.81
2019-02-07T03:01:55.481Z,304.10
2019-02-07T03:02:56.011Z,305.29
2019-02-07T03:03:55.151Z,305.16
2019-02-07T03:04:55.071Z,305.64
2019-02-07T03:05:55.047Z,305.42
2019-02-07T03:06:55.042Z,305.50
2019-02-07T03:07:55.066Z,305.62
2019-02-07T03:08:55.023Z,305.24
2019-02-07T03:09:55.034Z,305.19
2019-02-07T03:10:54.999Z,305.45
2019-02-07T03:11:55.017Z,305.30
2019-02-07T03:12:55.018Z,305.55
2019-02-07T03:13:54.952Z,306.24
2019-02-07T03:14:54.958Z,306.19
2019-02-07T03:15:54.977Z,305.53
2019-02-07T03:16:54.981Z,305.88
2019-02-07T03:17:54.946Z,306.17
2019-02-07T03:18:54.897Z,306.34
2019-02-07T03:19:54.903Z,306.52
2019-02-07T03:20:54.906Z,306.07
2019-02-07T03:21:54.902Z,306.06
2019-02-07T03:22:54.901Z,306.31
2019-02-07T03:23:54.893Z,305.28
2019-02-07T03:24:54.886Z,306.68
2019-02-07T03:25:54.884Z,306.05
2019-02-07T03:26:54.846Z,305.65
2019-02-07T03:27:54.836Z,305.77
2019-02-07T03:29:01.874Z,305.91
2019-02-07T03:30:02.874Z,305.88
2019-02-07T03:30:54.937Z,306.08
2019-02-07T03:31:55.016Z,304.96
2019-02-07T03:32:54.782Z,305.72
2019-02-07T03:33:54.755Z,306.18
2019-02-07T03:34:54.759Z,305.73
2019-02-07T03:35:54.785Z,306.16
2019-02-07T03:36:54.779Z,306.31
2019-02-07T03:37:54.713Z,306.54
2019-02-07T03:38:54.689Z,306.05
2019-02-07T03:39:54.688Z,306.17
2019-02-07T03:40:54.727Z,306.06
2019-02-07T03:41:54.697Z,306.21
2019-02-07T03:42:54.688Z,305.48
2019-02-07T03:45:11.250Z,304.04
2019-02-07T03:46:11.248Z,305.99
2019-02-07T03:47:19.565Z,305.97
2019-02-07T03:48:18.295Z,305.32
2019-02-07T03:49:19.159Z,305.38
2019-02-07T03:50:18.342Z,305.32
2019-02-07T03:51:19.273Z,305.35
2019-02-07T03:52:19.365Z,304.46
2019-02-07T03:53:19.770Z,305.01
2019-02-07T03:54:19.814Z,305.14
2019-02-07T03:55:11.194Z,305.42
2019-02-07T03:56:11.182Z,304.60
2019-02-07T03:57:11.113Z,304.94
2019-02-07T03:58:11.784Z,305.08
2019-02-07T03:59:11.133Z,304.79
2019-02-07T04:00:11.104Z,305.00
2019-02-07T04:01:11.100Z,305.10
2019-02-07T04:02:11.055Z,305.80
2019-02-07T04:03:11.774Z,306.30
2019-02-07T04:04:11.055Z,305.87
2019-02-07T04:05:11.080Z,305.89
2019-02-07T04:06:11.052Z,306.65
2019-02-07T04:07:11.046Z,305.49
2019-02-07T04:08:10.998Z,306.12
2019-02-07T04:09:10.998Z,306.13
2019-02-07T04:10:10.984Z,305.68
2019-02-07T04:11:11.101Z,304.94
2019-02-07T04:12:10.962Z,305.33
2019-02-07T04:13:10.987Z,305.59
2019-02-07T04:14:10.928Z,305.33
2019-02-07T04:15:10.958Z,305.01
2019-02-07T04:16:15.105Z,305.35
2019-02-07T04:17:18.995Z,305.27
2019-02-07T04:18:18.861Z,304.51
2019-02-07T04:19:10.897Z,304.66
2019-02-07T04:20:10.870Z,305.47
2019-02-07T04:21:10.925Z,305.59
2019-02-07T04:22:10.951Z,305.51
2019-02-07T04:23:10.855Z,305.58
2019-02-07T04:24:10.840Z,305.89
2019-02-07T04:25:17.900Z,306.82
2019-02-07T04:26:10.862Z,307.53
2019-02-07T04:27:17.911Z,306.88
2019-02-07T04:28:19.419Z,306.92
2019-02-07T04:29:18.471Z,306.46
2019-02-07T04:30:18.826Z,306.30
2019-02-07T04:31:17.883Z,306.71
2019-02-07T04:32:19.526Z,306.68
2019-02-07T04:33:17.795Z,307.07
2019-02-07T04:34:19.563Z,307.07
2019-02-07T04:35:18.587Z,307.11
2019-02-07T04:36:17.825Z,307.45
2019-02-07T04:37:19.686Z,306.66
2019-02-07T04:38:19.681Z,307.14
2019-02-07T04:39:17.861Z,306.91
2019-02-07T04:40:18.709Z,307.41
2019-02-07T04:41:18.712Z,306.80
2019-02-07T04:42:18.681Z,306.47
2019-02-07T04:43:18.701Z,306.26
2019-02-07T04:44:19.315Z,308.43
2019-02-07T04:45:10.703Z,307.61
2019-02-07T04:46:26.652Z,307.00
2019-02-07T04:47:10.684Z,307.48
2019-02-07T04:48:10.622Z,306.69
2019-02-07T04:49:10.646Z,306.86
2019-02-07T04:50:10.573Z,307.62
2019-02-07T04:51:10.603Z,307.91
2019-02-07T04:52:10.576Z,307.85
2019-02-07T04:53:10.549Z,307.40
2019-02-07T04:54:10.555Z,306.89
2019-02-07T04:55:10.522Z,306.94
2019-02-07T04:56:10.550Z,307.96
2019-02-07T04:57:10.536Z,307.80
2019-02-07T04:58:10.491Z,307.75
2019-02-07T04:59:10.497Z,307.84
2019-02-07T05:00:10.477Z,307.92
2019-02-07T05:01:10.817Z,307.25
2019-02-07T05:02:10.471Z,307.82
2019-02-07T05:03:10.476Z,308.15
2019-02-07T05:04:10.436Z,307.83
2019-02-07T05:05:10.427Z,307.62
2019-02-07T05:06:10.444Z,307.58
2019-02-07T05:07:10.406Z,307.53
2019-02-07T05:08:10.434Z,307.54
2019-02-07T05:09:10.408Z,307.86
2019-02-07T05:10:10.386Z,308.37
2019-02-07T05:11:10.379Z,308.71
2019-02-07T05:12:10.331Z,308.71
2019-02-07T05:13:10.343Z,308.50
2019-02-07T05:14:10.354Z,308.75
2019-02-07T05:15:10.315Z,308.87
2019-02-07T05:16:10.365Z,308.50
2019-02-07T05:17:10.319Z,308.14
2019-02-07T05:18:10.274Z,308.43
2019-02-07T05:19:10.365Z,308.77
2019-02-07T05:20:10.286Z,308.21
2019-02-07T05:21:10.295Z,308.20
2019-02-07T05:22:10.234Z,308.46
2019-02-07T05:23:10.224Z,308.64
2019-02-07T05:24:10.234Z,307.83
2019-02-07T05:25:10.215Z,308.33
2019-02-07T05:26:10.842Z,309.48
2019-02-07T05:27:10.178Z,308.79
2019-02-07T05:28:10.201Z,309.05
2019-02-07T05:29:10.185Z,308.38
2019-02-07T05:30:10.153Z,308.51
2019-02-07T05:31:10.174Z,307.89
2019-02-07T05:32:10.158Z,308.00
2019-02-07T05:33:10.116Z,308.39
2019-02-07T05:34:10.164Z,308.39
2019-02-07T05:35:10.120Z,308.52
2019-02-07T05:36:10.117Z,308.20
2019-02-07T05:37:10.849Z,308.75
2019-02-07T05:38:10.050Z,308.70
2019-02-07T05:39:10.048Z,308.99
2019-02-07T05:40:10.062Z,308.61
2019-02-07T05:41:10.086Z,309.42
2019-02-07T05:42:10.072Z,309.32
2019-02-07T05:43:10.831Z,309.03
2019-02-07T05:44:10.055Z,308.75
2019-02-07T05:45:10.031Z,308.65
2019-02-07T05:46:09.999Z,309.22
2019-02-07T05:47:10.008Z,309.40
2019-02-07T05:48:10.001Z,308.80
2019-02-07T05:49:09.978Z,309.68
2019-02-07T05:50:09.971Z,309.36
2019-02-07T05:51:09.932Z,309.13
2019-02-07T05:52:09.973Z,309.35
2019-02-07T05:53:09.911Z,309.30
2019-02-07T05:54:09.907Z,308.79
2019-02-07T05:55:09.924Z,309.34
2019-02-07T05:56:09.880Z,309.38
2019-02-07T05:57:09.920Z,309.13
2019-02-07T05:58:09.884Z,309.18
2019-02-07T05:59:09.839Z,309.09
2019-02-07T06:00:09.858Z,308.45
2019-02-07T06:01:09.845Z,309.57
2019-02-07T06:02:09.874Z,309.82
2019-02-07T06:03:09.836Z,309.33
2019-02-07T06:04:09.855Z,309.26
2019-02-07T06:05:09.803Z,309.25
2019-02-07T06:06:09.784Z,309.25
2019-02-07T06:07:10.309Z,309.31
2019-02-07T06:08:17.348Z,309.00
2019-02-07T06:09:09.909Z,309.29
2019-02-07T06:10:09.738Z,309.64
2019-02-07T06:11:09.707Z,310.02
2019-02-07T06:12:09.769Z,310.91
2019-02-07T06:13:09.722Z,309.95
2019-02-07T06:14:09.702Z,309.64
2019-02-07T06:15:09.666Z,309.75
2019-02-07T06:16:09.647Z,309.19
2019-02-07T06:17:09.867Z,309.96
2019-02-07T06:18:10.344Z,310.10
2019-02-07T06:19:09.685Z,309.48
2019-02-07T06:20:09.715Z,309.79
2019-02-07T06:21:09.627Z,309.87
2019-02-07T06:22:09.633Z,309.71
2019-02-07T06:23:09.598Z,310.00
2019-02-07T06:24:17.422Z,310.18
2019-02-07T06:25:16.691Z,310.06
2019-02-07T06:26:17.671Z,309.51
2019-02-07T06:27:16.625Z,309.86
2019-02-07T06:28:16.915Z,310.41
2019-02-07T06:29:17.475Z,310.06
2019-02-07T06:30:18.489Z,309.81
2019-02-07T06:31:17.615Z,309.80
2019-02-07T06:32:09.546Z,310.08
2019-02-07T06:33:09.516Z,309.27
2019-02-07T06:34:09.504Z,309.95
2019-02-07T06:35:09.479Z,309.87
2019-02-07T06:36:09.471Z,310.34
2019-02-07T06:37:09.500Z,310.47
2019-02-07T06:38:09.426Z,310.21
2019-02-07T06:39:09.435Z,310.55
2019-02-07T06:40:09.419Z,309.87
2019-02-07T06:41:09.405Z,309.94
2019-02-07T06:42:09.413Z,310.51
2019-02-07T06:43:09.423Z,310.24
2019-02-07T06:44:09.385Z,310.58
2019-02-07T06:45:09.384Z,310.14
2019-02-07T06:46:09.382Z,309.92
2019-02-07T06:47:13.458Z,310.55
2019-02-07T06:48:09.345Z,310.13
2019-02-07T06:49:17.357Z,310.20
2019-02-07T06:50:09.366Z,310.37
2019-02-07T06:51:09.342Z,310.35
2019-02-07T06:52:09.314Z,310.55
2019-02-07T06:53:11.213Z,309.89
2019-02-07T06:54:09.263Z,310.27
2019-02-07T06:55:09.289Z,310.07
2019-02-07T06:56:09.254Z,309.58
2019-02-07T06:57:09.283Z,309.85
2019-02-07T06:58:09.229Z,309.73
2019-02-07T06:59:09.254Z,310.02
2019-02-07T07:00:09.225Z,310.00
2019-02-07T07:01:09.195Z,309.96
2019-02-07T07:02:09.217Z,310.07
2019-02-07T07:03:09.188Z,309.42
2019-02-07T07:04:09.159Z,309.71
2019-02-07T07:05:18.070Z,309.96
2019-02-07T07:06:09.246Z,310.36
2019-02-07T07:07:09.170Z,310.45
2019-02-07T07:08:09.128Z,310.40
2019-02-07T07:09:09.110Z,310.50
2019-02-07T07:10:09.119Z,310.33
2019-02-07T07:11:09.098Z,310.38
2019-02-07T07:12:09.114Z,310.36
2019-02-07T07:13:09.083Z,310.67
2019-02-07T07:14:09.076Z,309.74
2019-02-07T07:15:09.051Z,309.86
2019-02-07T07:16:09.047Z,310.01
2019-02-07T07:17:09.073Z,309.64
2019-02-07T07:18:09.062Z,309.55
2019-02-07T07:19:09.010Z,310.17
2019-02-07T07:20:09.026Z,309.57
2019-02-07T07:21:08.993Z,310.18
2019-02-07T07:22:09.003Z,309.91
2019-02-07T07:23:09.560Z,309.99
2019-02-07T07:24:09.027Z,310.20
2019-02-07T07:25:08.950Z,309.76
2019-02-07T07:26:09.496Z,309.19
2019-02-07T07:27:09.013Z,309.82
2019-02-07T07:28:08.928Z,308.90
2019-02-07T07:29:10.606Z,309.14
2019-02-07T07:30:08.894Z,309.62
2019-02-07T07:31:08.897Z,309.95
2019-02-07T07:32:08.898Z,309.77
2019-02-07T07:33:08.866Z,309.30
2019-02-07T07:34:08.860Z,309.77
2019-02-07T07:35:08.860Z,310.01
2019-02-07T07:36:08.894Z,309.64
2019-02-07T07:37:08.873Z,309.58
2019-02-07T07:38:08.828Z,309.46
2019-02-07T07:39:08.815Z,309.67
2019-02-07T07:40:08.833Z,309.44
2019-02-07T07:41:08.798Z,309.38
2019-02-07T07:42:08.814Z,308.67
2019-02-07T07:43:08.758Z,309.67
2019-02-07T07:44:08.818Z,308.65
2019-02-07T07:45:08.740Z,309.33
2019-02-07T07:46:08.841Z,309.44
2019-02-07T07:47:08.768Z,309.70
2019-02-07T07:48:08.765Z,309.48
2019-02-07T07:49:10.508Z,309.97
2019-02-07T07:50:08.678Z,309.75
2019-02-07T07:51:08.686Z,309.93
2019-02-07T07:52:08.690Z,309.73
2019-02-07T07:53:08.688Z,308.98
2019-02-07T07:54:08.680Z,309.27
2019-02-07T07:55:08.624Z,308.77
2019-02-07T07:56:08.652Z,309.35
2019-02-07T07:57:08.654Z,309.43
2019-02-07T07:58:08.645Z,309.29
2019-02-07T07:59:16.609Z,309.19
2019-02-07T08:00:08.617Z,309.11
2019-02-07T08:01:08.575Z,309.55
2019-02-07T08:02:10.182Z,309.70
2019-02-07T08:03:08.553Z,309.68
2019-02-07T08:04:08.585Z,309.98
2019-02-07T08:05:08.567Z,309.40
2019-02-07T08:06:08.553Z,309.45
2019-02-07T08:07:16.624Z,309.58
2019-02-07T08:08:16.654Z,309.63
2019-02-07T08:09:08.489Z,309.33
2019-02-07T08:10:08.534Z,308.95
2019-02-07T08:11:08.490Z,310.01
2019-02-07T08:12:08.455Z,309.25
2019-02-07T08:13:08.479Z,309.38
2019-02-07T08:14:09.148Z,309.33
2019-02-07T08:15:08.455Z,309.30
2019-02-07T08:16:08.446Z,308.78
2019-02-07T08:17:16.199Z,309.31
2019-02-07T08:18:15.581Z,309.14
2019-02-07T08:19:17.210Z,308.59
2019-02-07T08:20:17.187Z,308.85
2019-02-07T08:21:08.395Z,308.65
2019-02-07T08:22:16.402Z,308.76
2019-02-07T08:23:16.527Z,308.67
2019-02-07T08:27:47.363Z,307.74
2019-02-07T08:28:55.207Z,308.46
2019-02-07T08:29:55.061Z,307.86
2019-02-07T08:30:54.793Z,308.50
2019-02-07T08:31:56.136Z,309.04
2019-02-07T08:32:55.202Z,308.82
2019-02-07T08:33:55.153Z,309.11
2019-02-07T08:34:54.702Z,309.35
2019-02-07T08:35:55.648Z,308.17
2019-02-07T08:38:03.956Z,308.51
2019-02-07T08:39:04.012Z,308.90
2019-02-07T08:40:03.971Z,308.24
2019-02-07T08:41:03.978Z,309.51
2019-02-07T08:42:03.935Z,309.26
2019-02-07T08:43:03.942Z,308.29
2019-02-07T08:44:03.898Z,309.16
2019-02-07T08:45:04.537Z,308.71
2019-02-07T08:46:03.940Z,308.00
2019-02-07T08:47:03.924Z,308.70
2019-02-07T08:48:04.122Z,308.44
2019-02-07T08:49:03.870Z,308.62
2019-02-07T08:50:03.871Z,308.95
2019-02-07T08:51:03.845Z,308.37
2019-02-07T08:52:04.500Z,309.00
2019-02-07T08:53:03.864Z,308.50
2019-02-07T08:54:03.857Z,308.34
2019-02-07T08:55:03.801Z,308.33
2019-02-07T08:56:03.801Z,308.17
2019-02-07T08:57:03.790Z,308.10
2019-02-07T08:58:03.966Z,308.50
2019-02-07T08:59:11.809Z,308.21
2019-02-07T09:02:27.515Z,308.09
2019-02-07T09:03:35.575Z,307.44
2019-02-07T09:04:35.775Z,308.44
2019-02-07T09:05:34.480Z,307.90
2019-02-07T09:06:35.490Z,308.21
2019-02-07T09:07:27.430Z,308.42
2019-02-07T09:08:27.417Z,308.75
2019-02-07T09:09:27.390Z,309.23
2019-02-07T09:10:27.368Z,308.45
2019-02-07T09:11:27.361Z,308.23
2019-02-07T09:12:27.430Z,308.46
2019-02-07T09:13:27.360Z,308.45
2019-02-07T09:14:27.340Z,308.08
2019-02-07T09:15:27.296Z,308.47
2019-02-07T09:16:27.288Z,308.10
2019-02-07T09:17:27.287Z,307.82
2019-02-07T09:18:27.305Z,308.35
2019-02-07T09:19:27.310Z,307.45
2019-02-07T09:20:27.280Z,308.40
2019-02-07T09:21:27.258Z,307.90
2019-02-07T09:22:34.337Z,308.18
2019-02-07T09:23:35.317Z,308.79
2019-02-07T09:24:35.945Z,308.10
2019-02-07T09:25:35.228Z,307.88
2019-02-07T09:26:35.726Z,308.06
2019-02-07T09:28:43.863Z,306.28
2019-02-07T09:29:43.760Z,307.69
2019-02-07T09:30:43.765Z,307.40
2019-02-07T09:31:43.735Z,307.32
2019-02-07T09:32:43.712Z,307.72
2019-02-07T09:33:43.718Z,307.21
2019-02-07T09:34:43.691Z,307.14
2019-02-07T09:35:43.705Z,307.60
2019-02-07T09:36:43.690Z,308.09
2019-02-07T09:37:43.683Z,306.54
2019-02-07T09:38:43.725Z,307.32
2019-02-07T09:39:43.691Z,306.81
2019-02-07T09:40:43.692Z,307.61
2019-02-07T09:41:43.624Z,307.52
2019-02-07T09:42:43.634Z,306.97
2019-02-07T09:43:51.674Z,306.64
2019-02-07T09:44:43.658Z,306.86
2019-02-07T09:45:43.559Z,307.05
2019-02-07T09:46:43.567Z,306.93
2019-02-07T09:47:43.559Z,306.55
2019-02-07T09:48:50.667Z,306.86
2019-02-07T09:49:51.669Z,305.73
2019-02-07T09:50:50.617Z,305.58
2019-02-07T09:51:43.509Z,305.30
2019-02-07T09:52:43.512Z,306.66
2019-02-07T09:53:43.500Z,306.37
2019-02-07T09:54:43.496Z,306.38
2019-02-07T09:55:43.491Z,306.50
2019-02-07T09:56:43.459Z,306.61
2019-02-07T09:57:43.469Z,306.83
2019-02-07T09:58:43.470Z,306.98
2019-02-07T09:59:43.431Z,307.44
2019-02-07T10:00:43.440Z,306.74
2019-02-07T10:01:43.461Z,307.20
2019-02-07T10:02:43.400Z,306.88
2019-02-07T10:03:43.441Z,307.15
2019-02-07T10:04:43.395Z,306.56
2019-02-07T10:05:43.384Z,307.30
2019-02-07T10:06:43.393Z,306.80
2019-02-07T10:07:43.344Z,307.55
2019-02-07T10:08:43.344Z,306.79
2019-02-07T10:09:43.354Z,306.81
2019-02-07T10:10:43.328Z,306.68
2019-02-07T10:11:43.361Z,306.88
2019-02-07T10:12:43.320Z,306.14
2019-02-07T10:13:43.282Z,306.67
2019-02-07T10:14:43.295Z,307.12
2019-02-07T10:15:43.270Z,306.95
2019-02-07T10:16:43.257Z,306.44
2019-02-07T10:17:43.272Z,306.15
2019-02-07T10:18:43.259Z,306.16
2019-02-07T10:19:43.246Z,306.92
2019-02-07T10:20:43.215Z,306.40
2019-02-07T10:21:43.827Z,306.45
2019-02-07T10:22:51.778Z,306.72
2019-02-07T10:23:50.277Z,306.14
2019-02-07T10:24:51.303Z,305.75
2019-02-07T10:25:43.201Z,305.67
2019-02-07T10:26:43.148Z,306.09
2019-02-07T10:27:43.140Z,306.36
2019-02-07T10:28:43.142Z,305.89
2019-02-07T10:29:43.153Z,306.69
2019-02-07T10:30:43.078Z,305.99
2019-02-07T10:31:43.125Z,305.78
2019-02-07T10:32:43.077Z,306.23
2019-02-07T10:33:43.087Z,306.95
2019-02-07T10:34:43.085Z,306.40
2019-02-07T10:35:43.029Z,306.42
2019-02-07T10:36:43.044Z,305.33
2019-02-07T10:37:43.041Z,305.55
2019-02-07T10:38:43.038Z,306.34
2019-02-07T10:39:43.033Z,305.49
2019-02-07T10:40:43.012Z,305.92
2019-02-07T10:41:42.999Z,306.72
2019-02-07T10:42:42.961Z,307.03
2019-02-07T10:43:42.965Z,306.15
2019-02-07T10:44:42.993Z,306.41
2019-02-07T10:45:42.959Z,306.21
2019-02-07T10:46:42.932Z,306.05
2019-02-07T10:47:42.940Z,306.20
2019-02-07T10:48:44.607Z,305.92
2019-02-07T10:49:42.942Z,305.24
2019-02-07T10:50:42.889Z,306.48
2019-02-07T10:51:42.900Z,305.36
2019-02-07T10:52:42.902Z,305.95
2019-02-07T10:53:42.906Z,305.60
2019-02-07T10:54:42.921Z,304.86
2019-02-07T10:55:42.838Z,306.35
2019-02-07T10:56:42.833Z,305.61
2019-02-07T10:57:42.838Z,305.73
2019-02-07T10:58:42.834Z,305.77
2019-02-07T10:59:42.831Z,304.48
2019-02-07T11:00:42.817Z,306.20
2019-02-07T11:01:42.792Z,303.90
2019-02-07T11:02:42.769Z,304.61
2019-02-07T11:03:42.773Z,304.82
2019-02-07T11:04:42.796Z,305.52
2019-02-07T11:05:42.714Z,304.61
2019-02-07T11:06:42.720Z,305.37
2019-02-07T11:07:42.739Z,305.62
2019-02-07T11:08:43.334Z,304.94
2019-02-07T11:09:42.718Z,305.06
2019-02-07T11:10:42.705Z,305.04
2019-02-07T11:11:42.673Z,305.62
2019-02-07T11:12:42.663Z,306.29
2019-02-07T11:13:42.652Z,303.87
2019-02-07T11:14:42.648Z,305.86
2019-02-07T11:15:42.647Z,304.30
2019-02-07T11:16:42.626Z,304.34
2019-02-07T11:17:42.656Z,304.96
2019-02-07T11:18:42.581Z,303.52
2019-02-07T11:19:43.303Z,305.16
2019-02-07T11:20:42.615Z,303.33
2019-02-07T11:21:42.577Z,304.31
2019-02-07T11:22:42.572Z,304.49
2019-02-07T11:23:42.578Z,305.63
2019-02-07T11:24:42.532Z,306.08
2019-02-07T11:25:42.531Z,304.66
2019-02-07T11:26:42.519Z,304.99
2019-02-07T11:27:42.544Z,304.79
2019-02-07T11:28:42.479Z,304.66
2019-02-07T11:29:42.484Z,303.56
2019-02-07T11:30:42.472Z,304.44
2019-02-07T11:31:42.488Z,303.77
2019-02-07T11:32:42.461Z,303.92
2019-02-07T11:33:42.441Z,304.68
2019-02-07T11:34:42.436Z,304.21
2019-02-07T11:35:42.412Z,304.74
2019-02-07T11:36:53.612Z,305.28
2019-02-07T11:37:43.426Z,303.72
2019-02-07T11:38:42.413Z,303.28
2019-02-07T11:39:42.384Z,303.54
2019-02-07T11:40:42.395Z,304.03
2019-02-07T11:41:42.366Z,303.79
2019-02-07T11:42:42.337Z,304.20
2019-02-07T11:43:42.341Z,303.90
2019-02-07T11:44:42.366Z,304.57
2019-02-07T11:45:42.351Z,304.58
2019-02-07T11:46:42.457Z,304.62
2019-02-07T11:47:42.278Z,303.43
2019-02-07T11:48:42.307Z,304.79
2019-02-07T11:49:42.280Z,304.52
2019-02-07T11:50:42.279Z,303.20
2019-02-07T11:51:42.246Z,302.61
2019-02-07T11:52:42.287Z,304.49
2019-02-07T11:53:42.262Z,304.34
2019-02-07T11:54:42.819Z,304.05
2019-02-07T11:55:42.206Z,303.23
2019-02-07T11:56:42.217Z,302.63
2019-02-07T11:57:42.228Z,302.99
2019-02-07T11:58:42.203Z,301.93
2019-02-07T11:59:42.165Z,302.10
2019-02-07T12:00:42.171Z,303.67
2019-02-07T12:01:42.163Z,302.02
2019-02-07T12:02:42.126Z,301.67
2019-02-07T12:03:42.111Z,301.93
2019-02-07T12:04:42.119Z,301.70
2019-02-07T12:06:59.050Z,300.66
2019-02-07T12:08:07.131Z,301.70
2019-02-07T12:09:06.080Z,302.05
2019-02-07T12:10:07.044Z,302.49
2019-02-07T12:11:06.255Z,302.13
2019-02-07T12:12:06.661Z,301.29
2019-02-07T12:12:58.934Z,301.99
2019-02-07T12:14:07.933Z,301.94
2019-02-07T12:15:07.958Z,301.62
2019-02-07T12:16:06.992Z,301.65
2019-02-07T12:17:07.766Z,302.05
2019-02-07T12:18:05.936Z,301.99
2019-02-07T12:19:17.500Z,303.24
2019-02-07T12:21:09.520Z,301.99
2019-02-07T12:22:18.449Z,302.04
2019-02-07T12:23:18.403Z,302.40
2019-02-07T12:24:09.508Z,301.02
2019-02-07T12:25:09.491Z,305.29
2019-02-07T12:26:09.481Z,304.15
2019-02-07T12:27:09.438Z,302.97
2019-02-07T12:28:09.416Z,303.12
2019-02-07T12:29:09.393Z,303.53
2019-02-07T12:30:09.393Z,303.49
2019-02-07T12:31:10.416Z,303.46
2019-02-07T12:32:09.436Z,304.51
2019-02-07T12:33:09.385Z,303.74
2019-02-07T12:34:09.355Z,303.72
2019-02-07T12:35:09.368Z,302.77
2019-02-07T12:36:09.335Z,302.43
2019-02-07T12:37:09.313Z,302.59
2019-02-07T12:38:09.303Z,302.23
2019-02-07T12:39:09.422Z,303.71
2019-02-07T12:40:09.304Z,303.63
2019-02-07T12:41:09.298Z,303.68
2019-02-07T12:42:09.269Z,302.51